createdAt,value
2018-05-01T00:02:25.905Z,96751.22
2018-05-01T00:04:53.327Z,96745.73
2018-05-01T00:07:20.775Z,96745.95
2018-05-01T00:09:48.200Z,96743.81
2018-05-01T00:12:15.778Z,96740.46
2018-05-01T00:14:43.251Z,96744.38
2018-05-01T00:17:10.706Z,96739.27
2018-05-01T00:19:38.120Z,96737.06
2018-05-01T00:22:05.941Z,96733.00
2018-05-01T00:24:33.374Z,96722.44
2018-05-01T00:27:00.841Z,96718.56
2018-05-01T00:29:28.294Z,96718.66
2018-05-01T00:31:55.699Z,96710.03
2018-05-01T00:34:23.177Z,96712.15
2018-05-01T00:36:50.641Z,96710.84
2018-05-01T00:39:18.071Z,96712.73
2018-05-01T00:41:45.513Z,96706.83
2018-05-01T00:44:12.922Z,96704.64
2018-05-01T00:46:41.227Z,96707.56
2018-05-01T00:49:08.670Z,96708.89
2018-05-01T00:51:36.142Z,96710.30
2018-05-01T00:54:03.499Z,96702.19
2018-05-01T00:56:30.921Z,96702.89
2018-05-01T00:58:58.498Z,96704.68
2018-05-01T01:01:25.920Z,96701.92
2018-05-01T01:03:53.376Z,96697.59
2018-05-01T01:06:20.801Z,96694.63
2018-05-01T01:08:48.235Z,96700.96
2018-05-01T01:11:15.783Z,96701.02
2018-05-01T01:13:43.244Z,96696.61
2018-05-01T01:16:10.676Z,96696.86
2018-05-01T01:18:38.096Z,96703.49
2018-05-01T01:21:05.589Z,96696.99
2018-05-01T01:23:33.019Z,96698.95
2018-05-01T01:26:00.414Z,96703.83
2018-05-01T01:28:27.845Z,96692.60
2018-05-01T01:30:55.352Z,96701.75
2018-05-01T01:33:22.809Z,96701.27
2018-05-01T01:35:49.659Z,96699.20
2018-05-01T01:38:16.589Z,96704.55
2018-05-01T01:40:43.469Z,96701.92
2018-05-01T01:43:10.334Z,96698.09
2018-05-01T01:45:37.278Z,96702.55
2018-05-01T01:48:04.217Z,96705.88
2018-05-01T01:50:31.114Z,96701.34
2018-05-01T01:52:58.275Z,96703.25
2018-05-01T01:55:25.151Z,96701.27
2018-05-01T01:57:52.078Z,96702.55
2018-05-01T02:00:18.988Z,96708.30
2018-05-01T02:02:45.883Z,96704.12
2018-05-01T02:05:12.777Z,96705.59
2018-05-01T02:07:39.972Z,96709.13
2018-05-01T02:10:06.866Z,96701.36
2018-05-01T02:12:33.749Z,96703.55
2018-05-01T02:15:00.655Z,96705.20
2018-05-01T02:17:27.511Z,96699.23
2018-05-01T02:19:54.369Z,96702.57
2018-05-01T02:22:21.272Z,96707.59
2018-05-01T02:24:48.137Z,96712.28
2018-05-01T02:27:14.987Z,96703.84
2018-05-01T02:29:41.907Z,96709.37
2018-05-01T02:32:08.803Z,96699.88
2018-05-01T02:34:35.734Z,96702.48
2018-05-01T02:37:02.682Z,96705.86
2018-05-01T02:39:29.598Z,96706.38
2018-05-01T02:41:56.563Z,96701.37
2018-05-01T02:44:23.429Z,96706.45
2018-05-01T02:46:50.364Z,96707.23
2018-05-01T02:49:17.314Z,96704.93
2018-05-01T02:51:44.231Z,96702.13
2018-05-01T02:54:11.758Z,96710.23
2018-05-01T02:56:38.648Z,96710.70
2018-05-01T02:59:05.584Z,96716.27
2018-05-01T03:01:32.438Z,96709.14
2018-05-01T03:03:59.319Z,96716.14
2018-05-01T03:06:26.217Z,96714.41
2018-05-01T03:08:53.153Z,96717.55
2018-05-01T03:11:20.042Z,96712.45
2018-05-01T03:13:46.964Z,96715.11
2018-05-01T03:16:13.860Z,96716.39
2018-05-01T03:18:40.791Z,96721.45
2018-05-01T03:21:07.736Z,96723.20
2018-05-01T03:23:35.272Z,96716.65
2018-05-01T03:26:02.176Z,96715.12
2018-05-01T03:28:29.065Z,96709.55
2018-05-01T03:30:55.992Z,96715.56
2018-05-01T03:33:22.881Z,96714.67
2018-05-01T03:35:49.761Z,96720.39
2018-05-01T03:38:16.700Z,96720.70
2018-05-01T03:40:43.591Z,96719.49
2018-05-01T03:43:10.490Z,96722.53
2018-05-01T03:45:37.385Z,96719.17
2018-05-01T03:48:04.265Z,96723.17
2018-05-01T03:50:31.149Z,96727.06
2018-05-01T03:52:58.013Z,96735.64
2018-05-01T03:55:24.862Z,96736.35
2018-05-01T03:57:51.767Z,96734.17
2018-05-01T04:00:18.688Z,96731.34
2018-05-01T04:02:45.653Z,96727.25
2018-05-01T04:05:12.528Z,96720.29
2018-05-01T04:07:39.381Z,96734.41
2018-05-01T04:10:06.276Z,96734.67
2018-05-01T04:12:33.224Z,96730.63
2018-05-01T04:15:00.271Z,96736.76
2018-05-01T04:17:27.111Z,96742.27
2018-05-01T04:19:54.022Z,96735.66
2018-05-01T04:22:20.947Z,96733.66
2018-05-01T04:24:47.843Z,96730.71
2018-05-01T04:27:14.727Z,96740.05
2018-05-01T04:29:41.628Z,96748.94
2018-05-01T04:32:08.526Z,96741.55
2018-05-01T04:34:35.394Z,96750.24
2018-05-01T04:37:02.262Z,96742.64
2018-05-01T04:39:29.154Z,96748.61
2018-05-01T04:41:56.079Z,96747.81
2018-05-01T04:44:22.986Z,96749.83
2018-05-01T04:46:49.854Z,96748.09
2018-05-01T04:49:16.784Z,96746.63
2018-05-01T04:51:43.752Z,96760.19
2018-05-01T04:54:10.604Z,96759.92
2018-05-01T04:56:37.764Z,96760.76
2018-05-01T04:59:04.685Z,96764.41
2018-05-01T05:01:31.571Z,96765.72
2018-05-01T05:03:58.512Z,96765.88
2018-05-01T05:06:25.438Z,96764.18
2018-05-01T05:08:52.320Z,96768.78
2018-05-01T05:11:19.272Z,96773.91
2018-05-01T05:13:46.162Z,96771.44
2018-05-01T05:16:13.019Z,96772.17
2018-05-01T05:18:39.880Z,96771.70
2018-05-01T05:21:06.804Z,96778.47
2018-05-01T05:23:33.698Z,96789.83
2018-05-01T05:26:00.660Z,96791.71
2018-05-01T05:28:27.629Z,96784.06
2018-05-01T05:30:54.591Z,96783.07
2018-05-01T05:33:21.490Z,96785.09
2018-05-01T05:35:48.399Z,96795.29
2018-05-01T05:38:15.327Z,96789.46
2018-05-01T05:40:42.305Z,96788.97
2018-05-01T05:43:09.196Z,96795.11
2018-05-01T05:45:36.141Z,96788.86
2018-05-01T05:48:03.000Z,96797.06
2018-05-01T05:50:29.898Z,96804.34
2018-05-01T05:52:56.920Z,96803.80
2018-05-01T05:55:24.105Z,96802.05
2018-05-01T05:57:51.049Z,96802.23
2018-05-01T06:00:17.948Z,96798.99
2018-05-01T06:02:45.706Z,96801.30
2018-05-01T06:05:12.598Z,96798.33
2018-05-01T06:07:39.642Z,96794.26
2018-05-01T06:10:06.520Z,96791.91
2018-05-01T06:12:33.513Z,96796.76
2018-05-01T06:15:00.358Z,96797.52
2018-05-01T06:17:27.261Z,96803.22
2018-05-01T06:19:54.164Z,96797.22
2018-05-01T06:22:21.013Z,96806.35
2018-05-01T06:24:48.089Z,96796.88
2018-05-01T06:27:14.981Z,96802.48
2018-05-01T06:29:41.860Z,96806.98
2018-05-01T06:32:08.752Z,96808.05
2018-05-01T06:34:35.627Z,96820.02
2018-05-01T06:37:02.563Z,96815.89
2018-05-01T06:39:29.499Z,96817.52
2018-05-01T06:41:56.380Z,96811.88
2018-05-01T06:44:23.303Z,96816.97
2018-05-01T06:46:50.199Z,96816.81
2018-05-01T06:49:17.088Z,96821.94
2018-05-01T06:51:43.999Z,96834.08
2018-05-01T06:54:10.955Z,96837.13
2018-05-01T06:56:37.872Z,96844.60
2018-05-01T06:59:04.835Z,96850.05
2018-05-01T07:01:31.733Z,96851.44
2018-05-01T07:03:58.655Z,96852.79
2018-05-01T07:06:25.563Z,96847.78
2018-05-01T07:08:52.457Z,96846.17
2018-05-01T07:11:19.438Z,96853.95
2018-05-01T07:13:46.303Z,96852.56
2018-05-01T07:16:13.158Z,96855.38
2018-05-01T07:18:40.050Z,96859.27
2018-05-01T07:21:06.981Z,96867.00
2018-05-01T07:23:33.892Z,96863.92
2018-05-01T07:26:00.946Z,96870.41
2018-05-01T07:28:27.816Z,96861.23
2018-05-01T07:30:54.816Z,96869.55
2018-05-01T07:33:21.721Z,96863.75
2018-05-01T07:35:48.654Z,96862.84
2018-05-01T07:38:15.521Z,96859.11
2018-05-01T07:40:42.412Z,96861.23
2018-05-01T07:43:09.261Z,96856.61
2018-05-01T07:45:36.187Z,96855.05
2018-05-01T07:48:03.115Z,96848.70
2018-05-01T07:50:30.034Z,96841.02
2018-05-01T07:52:57.059Z,96853.11
2018-05-01T07:55:23.959Z,96851.63
2018-05-01T07:57:50.866Z,96859.63
2018-05-01T08:00:17.826Z,96854.75
2018-05-01T08:02:44.847Z,96847.88
2018-05-01T08:05:11.925Z,96847.59
2018-05-01T08:07:38.969Z,96848.91
2018-05-01T08:10:05.860Z,96853.23
2018-05-01T08:12:32.776Z,96849.77
2018-05-01T08:14:59.720Z,96850.17
2018-05-01T08:17:26.652Z,96842.38
2018-05-01T08:19:53.572Z,96850.45
2018-05-01T08:22:20.622Z,96854.52
2018-05-01T08:24:48.244Z,96840.25
2018-05-01T08:27:15.339Z,96845.09
2018-05-01T08:29:42.189Z,96854.52
2018-05-01T08:32:09.149Z,96860.89
2018-05-01T08:34:36.057Z,96853.59
2018-05-01T08:37:02.982Z,96853.33
2018-05-01T08:39:29.889Z,96853.26
2018-05-01T08:41:56.734Z,96846.79
2018-05-01T08:44:23.631Z,96842.37
2018-05-01T08:46:50.555Z,96845.92
2018-05-01T08:49:17.443Z,96839.48
2018-05-01T08:51:44.303Z,96847.48
2018-05-01T08:54:11.248Z,96844.03
2018-05-01T08:56:38.175Z,96839.08
2018-05-01T08:59:05.083Z,96838.80
2018-05-01T09:01:32.062Z,96840.77
2018-05-01T09:03:59.177Z,96848.06
2018-05-01T09:06:26.157Z,96840.70
2018-05-01T09:08:53.063Z,96838.87
2018-05-01T09:11:19.978Z,96841.82
2018-05-01T09:13:46.844Z,96838.44
2018-05-01T09:16:13.789Z,96842.30
2018-05-01T09:18:40.889Z,96842.65
2018-05-01T09:21:07.732Z,96843.09
2018-05-01T09:23:34.671Z,96837.52
2018-05-01T09:26:01.588Z,96842.12
2018-05-01T09:28:28.454Z,96834.95
2018-05-01T09:30:55.347Z,96827.52
2018-05-01T09:33:22.242Z,96822.72
2018-05-01T09:35:49.456Z,96819.25
2018-05-01T09:38:16.385Z,96829.20
2018-05-01T09:40:43.355Z,96827.52
2018-05-01T09:43:10.335Z,96812.45
2018-05-01T09:45:37.207Z,96818.13
2018-05-01T09:48:04.145Z,96825.09
2018-05-01T09:50:31.035Z,96827.98
2018-05-01T09:52:58.431Z,96816.02
2018-05-01T09:55:26.138Z,96812.98
2018-05-01T09:57:53.591Z,96811.86
2018-05-01T10:00:24.864Z,96820.16
2018-05-01T10:02:52.303Z,96815.41
2018-05-01T10:05:19.906Z,96828.59
2018-05-01T10:07:47.398Z,96824.45
2018-05-01T10:10:14.829Z,96822.18
2018-05-01T10:12:42.313Z,96830.42
2018-05-01T10:15:09.760Z,96831.22
2018-05-01T10:17:37.239Z,96842.31
2018-05-01T10:20:04.974Z,96842.09
2018-05-01T10:22:32.488Z,96848.18
2018-05-01T10:25:00.000Z,96851.23
2018-05-01T10:27:27.501Z,96855.07
2018-05-01T10:29:54.956Z,96857.50
2018-05-01T10:32:22.394Z,96859.45
2018-05-01T10:34:49.824Z,96859.45
2018-05-01T10:37:17.362Z,96854.45
2018-05-01T10:39:44.831Z,96854.06
2018-05-01T10:42:12.305Z,96846.98
2018-05-01T10:44:39.831Z,96845.87
2018-05-01T10:47:07.283Z,96838.02
2018-05-01T10:49:34.790Z,96830.63
2018-05-01T10:52:02.289Z,96828.91
2018-05-01T10:54:29.716Z,96821.48
2018-05-01T10:56:57.144Z,96810.11
2018-05-01T10:59:24.790Z,96804.02
2018-05-01T11:01:52.244Z,96801.89
2018-05-01T11:04:19.832Z,96799.02
2018-05-01T11:06:47.272Z,96794.79
2018-05-01T11:09:14.724Z,96788.77
2018-05-01T11:11:42.207Z,96797.94
2018-05-01T11:14:09.602Z,96788.61
2018-05-01T11:16:37.011Z,96807.75
2018-05-01T11:19:04.033Z,96807.13
2018-05-01T11:21:31.043Z,96810.81
2018-05-01T11:23:58.685Z,96809.66
2018-05-01T11:26:26.198Z,96812.53
2018-05-01T11:28:53.676Z,96813.21
2018-05-01T11:31:21.148Z,96811.12
2018-05-01T11:33:49.389Z,96810.73
2018-05-01T11:36:16.856Z,96806.91
2018-05-01T11:38:44.259Z,96802.59
2018-05-01T11:41:11.722Z,96805.94
2018-05-01T11:43:39.162Z,96801.41
2018-05-01T11:46:06.572Z,96800.78
2018-05-01T11:48:34.059Z,96800.48
2018-05-01T11:51:01.539Z,96796.51
2018-05-01T11:53:29.044Z,96797.38
2018-05-01T11:55:56.825Z,96800.89
2018-05-01T11:58:24.250Z,96802.88
2018-05-01T12:00:51.672Z,96787.08
2018-05-01T12:03:19.070Z,96800.77
2018-05-01T12:05:46.468Z,96795.28
2018-05-01T12:08:13.997Z,96798.81
2018-05-01T12:10:41.489Z,96784.71
2018-05-01T12:13:08.930Z,96791.17
2018-05-01T12:15:36.508Z,96791.35
2018-05-01T12:18:04.066Z,96792.41
2018-05-01T12:20:31.466Z,96794.33
2018-05-01T12:22:58.955Z,96791.31
2018-05-01T12:25:26.408Z,96792.91
2018-05-01T12:27:53.893Z,96797.80
2018-05-01T12:30:21.356Z,96806.63
2018-05-01T12:32:49.163Z,96804.20
2018-05-01T12:35:16.591Z,96804.25
2018-05-01T12:37:44.037Z,96801.55
2018-05-01T12:40:11.559Z,96798.44
2018-05-01T12:42:39.068Z,96799.72
2018-05-01T12:45:06.609Z,96797.39
2018-05-01T12:47:34.000Z,96798.44
2018-05-01T12:50:01.962Z,96786.88
2018-05-01T12:52:29.420Z,96791.45
2018-05-01T12:54:56.836Z,96786.63
2018-05-01T12:57:24.527Z,96768.69
2018-05-01T12:59:51.936Z,96775.23
2018-05-01T13:02:19.337Z,96777.51
2018-05-01T13:04:46.751Z,96777.05
2018-05-01T13:07:14.213Z,96774.21
2018-05-01T13:09:41.652Z,96777.75
2018-05-01T13:12:09.078Z,96778.25
2018-05-01T13:14:36.532Z,96768.97
2018-05-01T13:17:03.990Z,96773.84
2018-05-01T13:19:31.392Z,96774.42
2018-05-01T13:21:58.865Z,96776.99
2018-05-01T13:24:26.341Z,96776.16
2018-05-01T13:26:53.762Z,96769.70
2018-05-01T13:29:21.166Z,96765.95
2018-05-01T13:31:48.631Z,96760.66
2018-05-01T13:34:16.101Z,96755.06
2018-05-01T13:36:43.546Z,96757.14
2018-05-01T13:39:11.077Z,96757.89
2018-05-01T13:41:38.551Z,96756.09
2018-05-01T13:44:05.992Z,96744.41
2018-05-01T13:46:33.455Z,96755.24
2018-05-01T13:49:01.128Z,96761.37
2018-05-01T13:51:28.549Z,96757.12
2018-05-01T13:53:56.109Z,96749.94
2018-05-01T13:56:24.313Z,96750.49
2018-05-01T13:58:51.772Z,96736.39
2018-05-01T14:01:19.166Z,96736.27
2018-05-01T14:03:46.821Z,96727.42
2018-05-01T14:06:14.417Z,96732.56
2018-05-01T14:08:41.880Z,96731.81
2018-05-01T14:11:09.447Z,96732.17
2018-05-01T14:13:36.775Z,96734.55
2018-05-01T14:16:04.282Z,96730.05
2018-05-01T14:18:31.817Z,96731.44
2018-05-01T14:20:59.145Z,96732.45
2018-05-01T14:23:27.426Z,96726.39
2018-05-01T14:25:54.883Z,96730.52
2018-05-01T14:28:22.310Z,96735.37
2018-05-01T14:30:49.879Z,96734.67
2018-05-01T14:33:17.319Z,96722.28
2018-05-01T14:35:44.952Z,96720.05
2018-05-01T14:38:12.396Z,96720.33
2018-05-01T14:40:39.841Z,96722.30
2018-05-01T14:43:07.764Z,96718.00
2018-05-01T14:45:35.188Z,96711.59
2018-05-01T14:48:02.678Z,96710.63
2018-05-01T14:50:30.104Z,96721.97
2018-05-01T14:52:57.536Z,96717.69
2018-05-01T14:55:25.022Z,96709.81
2018-05-01T14:57:52.483Z,96705.14
2018-05-01T15:00:19.980Z,96704.68
2018-05-01T15:02:59.175Z,96713.50
2018-05-01T15:05:26.656Z,96702.95
2018-05-01T15:07:54.150Z,96708.36
2018-05-01T15:10:21.546Z,96712.80
2018-05-01T15:12:49.074Z,96713.13
2018-05-01T15:15:16.537Z,96702.78
2018-05-01T15:17:44.024Z,96710.95
2018-05-01T15:20:11.461Z,96712.44
2018-05-01T15:22:38.913Z,96720.77
2018-05-01T15:25:06.356Z,96715.02
2018-05-01T15:27:33.798Z,96711.40
2018-05-01T15:30:01.421Z,96709.89
2018-05-01T15:32:28.848Z,96705.11
2018-05-01T15:34:57.215Z,96706.05
2018-05-01T15:37:24.880Z,96704.25
2018-05-01T15:39:52.317Z,96709.06
2018-05-01T15:42:19.710Z,96702.03
2018-05-01T15:44:47.259Z,96696.40
2018-05-01T15:47:14.730Z,96693.96
2018-05-01T15:49:42.189Z,96689.09
2018-05-01T15:52:09.586Z,96699.88
2018-05-01T15:54:37.097Z,96700.91
2018-05-01T15:57:04.543Z,96695.98
2018-05-01T15:59:32.008Z,96702.02
2018-05-01T16:01:59.441Z,96702.93
2018-05-01T16:04:26.836Z,96709.03
2018-05-01T16:06:54.386Z,96707.08
2018-05-01T16:09:21.878Z,96701.91
2018-05-01T16:11:49.276Z,96704.55
2018-05-01T16:14:16.762Z,96699.34
2018-05-01T16:16:44.186Z,96699.69
2018-05-01T16:19:11.794Z,96697.34
2018-05-01T16:21:39.280Z,96714.28
2018-05-01T16:24:06.734Z,96708.59
2018-05-01T16:26:34.193Z,96699.27
2018-05-01T16:29:01.708Z,96703.56
2018-05-01T16:31:29.149Z,96709.20
2018-05-01T16:33:56.733Z,96706.15
2018-05-01T16:36:24.081Z,96703.52
2018-05-01T16:38:51.589Z,96706.28
2018-05-01T16:41:18.988Z,96702.75
2018-05-01T16:43:46.469Z,96700.19
2018-05-01T16:46:13.927Z,96703.72
2018-05-01T16:48:41.361Z,96696.83
2018-05-01T16:51:08.891Z,96694.47
2018-05-01T16:53:36.280Z,96699.53
2018-05-01T16:56:03.757Z,96697.50
2018-05-01T16:58:31.226Z,96698.70
2018-05-01T17:00:58.684Z,96693.54
2018-05-01T17:03:26.293Z,96684.88
2018-05-01T17:05:53.684Z,96696.36
2018-05-01T17:08:21.310Z,96688.56
2018-05-01T17:10:48.829Z,96687.86
2018-05-01T17:13:16.332Z,96689.77
2018-05-01T17:15:43.817Z,96684.67
2018-05-01T17:18:11.251Z,96684.80
2018-05-01T17:20:38.908Z,96682.38
2018-05-01T17:23:06.361Z,96683.91
2018-05-01T17:25:33.843Z,96682.80
2018-05-01T17:28:01.391Z,96678.75
2018-05-01T17:30:28.755Z,96679.73
2018-05-01T17:32:56.171Z,96679.33
2018-05-01T17:35:23.644Z,96681.25
2018-05-01T17:37:51.084Z,96677.70
2018-05-01T17:40:18.472Z,96683.50
2018-05-01T17:42:45.913Z,96687.33
2018-05-01T17:45:13.344Z,96681.77
2018-05-01T17:47:40.930Z,96688.16
2018-05-01T17:50:08.396Z,96680.98
2018-05-01T17:52:35.867Z,96685.87
2018-05-01T17:55:03.357Z,96688.13
2018-05-01T17:57:30.872Z,96692.54
2018-05-01T17:59:58.325Z,96687.91
2018-05-01T18:02:25.944Z,96695.55
2018-05-01T18:04:53.343Z,96695.09
2018-05-01T18:07:20.843Z,96699.86
2018-05-01T18:09:48.356Z,96702.51
2018-05-01T18:12:15.750Z,96704.17
2018-05-01T18:14:43.216Z,96713.14
2018-05-01T18:17:10.632Z,96708.52
2018-05-01T18:19:38.026Z,96703.25
2018-05-01T18:22:05.423Z,96707.36
2018-05-01T18:24:32.925Z,96699.41
2018-05-01T18:27:00.321Z,96706.11
2018-05-01T18:29:27.715Z,96701.03
2018-05-01T18:31:55.196Z,96708.39
2018-05-01T18:34:22.642Z,96710.23
2018-05-01T18:36:50.151Z,96712.07
2018-05-01T18:39:17.617Z,96709.09
2018-05-01T18:41:45.073Z,96712.94
2018-05-01T18:44:12.673Z,96717.52
2018-05-01T18:46:40.145Z,96722.80
2018-05-01T18:49:07.580Z,96718.42
2018-05-01T18:51:35.233Z,96725.39
2018-05-01T18:54:02.770Z,96725.23
2018-05-01T18:56:30.264Z,96719.36
2018-05-01T18:58:57.709Z,96733.70
2018-05-01T19:01:25.127Z,96727.91
2018-05-01T19:03:53.144Z,96734.95
2018-05-01T19:06:20.721Z,96737.66
2018-05-01T19:08:48.163Z,96738.83
2018-05-01T19:11:15.696Z,96741.20
2018-05-01T19:13:43.126Z,96743.77
2018-05-01T19:16:11.548Z,96745.53
2018-05-01T19:18:38.967Z,96744.36
2018-05-01T19:21:06.419Z,96742.30
2018-05-01T19:23:33.884Z,96744.09
2018-05-01T19:26:01.337Z,96738.15
2018-05-01T19:28:28.738Z,96734.73
2018-05-01T19:30:56.372Z,96742.18
2018-05-01T19:33:24.668Z,96735.03
2018-05-01T19:35:52.155Z,96739.17
2018-05-01T19:38:19.602Z,96739.88
2018-05-01T19:40:47.038Z,96739.91
2018-05-01T19:43:14.502Z,96742.02
2018-05-01T19:45:42.071Z,96746.45
2018-05-01T19:48:10.139Z,96753.11
2018-05-01T19:50:38.407Z,96748.19
2018-05-01T19:53:06.393Z,96748.19
2018-05-01T19:55:33.844Z,96752.50
2018-05-01T19:58:01.304Z,96752.27
2018-05-01T20:00:28.724Z,96755.81
2018-05-01T20:02:57.034Z,96750.42
2018-05-01T20:05:24.686Z,96757.75
2018-05-01T20:07:52.169Z,96765.55
2018-05-01T20:10:19.612Z,96760.49
2018-05-01T20:12:47.010Z,96762.59
2018-05-01T20:15:14.731Z,96766.86
2018-05-01T20:17:42.179Z,96762.42
2018-05-01T20:20:09.573Z,96763.45
2018-05-01T20:22:37.026Z,96757.31
2018-05-01T20:25:04.490Z,96764.78
2018-05-01T20:27:32.937Z,96759.70
2018-05-01T20:30:00.393Z,96761.03
2018-05-01T20:32:27.913Z,96754.98
2018-05-01T20:34:55.343Z,96763.90
2018-05-01T20:37:22.827Z,96758.80
2018-05-01T20:39:50.263Z,96761.45
2018-05-01T20:42:17.716Z,96757.69
2018-05-01T20:44:45.146Z,96759.94
2018-05-01T20:47:12.579Z,96758.36
2018-05-01T20:49:40.041Z,96756.75
2018-05-01T20:52:07.618Z,96759.02
2018-05-01T20:54:35.182Z,96748.95
2018-05-01T20:57:03.045Z,96745.20
2018-05-01T20:59:30.446Z,96749.66
2018-05-01T21:01:57.839Z,96753.72
2018-05-01T21:04:25.287Z,96753.36
2018-05-01T21:06:52.702Z,96752.48
2018-05-01T21:09:20.109Z,96750.85
2018-05-01T21:11:47.571Z,96752.72
2018-05-01T21:14:15.015Z,96752.60
2018-05-01T21:16:42.461Z,96746.50
2018-05-01T21:19:09.852Z,96746.86
2018-05-01T21:21:37.295Z,96749.00
2018-05-01T21:24:04.687Z,96747.16
2018-05-01T21:26:32.121Z,96743.02
2018-05-01T21:28:59.665Z,96746.56
2018-05-01T21:31:27.135Z,96747.34
2018-05-01T21:33:54.526Z,96751.41
2018-05-01T21:36:22.156Z,96744.78
2018-05-01T21:38:49.616Z,96745.91
2018-05-01T21:41:17.041Z,96745.67
2018-05-01T21:43:44.459Z,96743.25
2018-05-01T21:46:11.950Z,96739.87
2018-05-01T21:48:39.386Z,96739.05
2018-05-01T21:51:06.866Z,96733.72
2018-05-01T21:53:34.290Z,96730.09
2018-05-01T21:56:01.678Z,96730.98
2018-05-01T21:58:29.173Z,96737.38
2018-05-01T22:00:56.634Z,96728.47
2018-05-01T22:03:24.101Z,96725.64
2018-05-01T22:05:51.511Z,96726.37
2018-05-01T22:08:18.935Z,96726.42
2018-05-01T22:10:46.404Z,96727.11
2018-05-01T22:13:14.307Z,96728.66
2018-05-01T22:15:41.744Z,96729.06
2018-05-01T22:18:09.224Z,96725.02
2018-05-01T22:20:36.663Z,96722.31
2018-05-01T22:23:04.059Z,96722.49
2018-05-01T22:25:31.468Z,96721.25
2018-05-01T22:27:58.900Z,96720.59
2018-05-01T22:30:26.325Z,96725.06
2018-05-01T22:32:53.746Z,96727.58
2018-05-01T22:35:21.151Z,96722.25
2018-05-01T22:37:48.782Z,96719.59
2018-05-01T22:40:16.174Z,96724.05
2018-05-01T22:42:43.607Z,96713.55
2018-05-01T22:45:11.043Z,96710.06
2018-05-01T22:47:38.545Z,96714.26
2018-05-01T22:50:05.961Z,96709.86
2018-05-01T22:52:33.395Z,96710.35
2018-05-01T22:55:00.884Z,96711.59
2018-05-01T22:57:28.299Z,96702.53
2018-05-01T22:59:55.777Z,96707.92
2018-05-01T23:02:23.236Z,96709.52
2018-05-01T23:04:50.652Z,96711.48
2018-05-01T23:07:18.081Z,96703.91
2018-05-01T23:09:45.522Z,96694.86
2018-05-01T23:12:12.943Z,96703.09
2018-05-01T23:14:40.379Z,96693.03
2018-05-01T23:17:07.813Z,96695.07
2018-05-01T23:19:35.248Z,96700.02
2018-05-01T23:22:02.704Z,96695.91
2018-05-01T23:24:30.260Z,96696.08
2018-05-01T23:26:57.759Z,96700.12
2018-05-01T23:29:25.160Z,96696.18
2018-05-01T23:31:52.583Z,96697.14
2018-05-01T23:34:20.037Z,96699.39
2018-05-01T23:36:47.456Z,96696.59
2018-05-01T23:39:14.906Z,96703.33
2018-05-01T23:41:42.369Z,96694.31
2018-05-01T23:44:09.794Z,96687.81
2018-05-01T23:46:37.214Z,96681.66
2018-05-01T23:49:05.436Z,96685.02
2018-05-01T23:51:32.825Z,96682.63
2018-05-01T23:54:00.361Z,96680.77
2018-05-01T23:56:27.828Z,96677.55
2018-05-01T23:58:55.247Z,96678.14
